Time;durP1;ratioP1;P1;durP2;ratioP2;P2;SDS_P1;SDS_P2;PMS_P1;PMS_P2;Temp;Humidity;BMP_temperature;BMP_pressure;BME280_temperature;BME280_humidity;BME280_pressure;Samples;Min_cycle;Max_cycle;Signal;HPM_P1;HPM_P2
2023/10/20 00:01:51;;;;;;;6.63;5.73;;;17.50;99.90;;;;;;5080455;28;20190;-77
2023/10/20 00:04:16;;;;;;;5.20;4.70;;;17.50;99.90;;;;;;5065702;28;20633;-76
2023/10/20 00:06:42;;;;;;;6.30;5.70;;;17.50;99.90;;;;;;5074647;28;20673;-76
2023/10/20 00:09:08;;;;;;;6.17;5.57;;;17.50;99.90;;;;;;5091735;28;20171;-77
2023/10/20 00:11:34;;;;;;;6.47;4.57;;;17.50;99.90;;;;;;5067104;28;20241;-76
2023/10/20 00:14:00;;;;;;;6.07;5.47;;;17.50;99.90;;;;;;5079374;28;20582;-76
2023/10/20 00:16:28;;;;;;;6.40;5.70;;;17.50;99.90;;;;;;5086117;28;20208;-76
2023/10/20 00:18:56;;;;;;;5.83;5.23;;;17.50;99.90;;;;;;5078626;28;20669;-76
2023/10/20 00:21:22;;;;;;;6.40;5.63;;;17.50;99.90;;;;;;5078722;28;20586;-76
2023/10/20 00:23:47;;;;;;;6.80;6.20;;;17.50;99.90;;;;;;5067598;28;20600;-76
2023/10/20 00:26:13;;;;;;;7.63;5.73;;;17.50;99.90;;;;;;5047333;28;20660;-76
2023/10/20 00:28:39;;;;;;;9.33;6.83;;;17.50;99.90;;;;;;5072831;28;20703;-76
2023/10/20 00:31:05;;;;;;;6.63;5.93;;;17.50;99.90;;;;;;5072371;28;20593;-76
2023/10/20 00:33:31;;;;;;;7.13;6.53;;;17.50;99.90;;;;;;5030929;28;21220;-76
2023/10/20 00:35:57;;;;;;;5.97;5.47;;;17.50;99.90;;;;;;5090424;28;20192;-77
2023/10/20 00:38:22;;;;;;;7.43;6.73;;;17.50;99.90;;;;;;5072491;28;20206;-77
2023/10/20 00:40:49;;;;;;;5.90;5.40;;;17.50;99.90;;;;;;5074888;28;20622;-76
2023/10/20 00:43:15;;;;;;;6.93;6.33;;;17.50;99.90;;;;;;5070962;28;20179;-76
2023/10/20 00:45:43;;;;;;;6.93;6.30;;;17.50;99.90;;;;;;5051385;28;20678;-76
2023/10/20 00:48:12;;;;;;;7.23;6.63;;;17.50;99.90;;;;;;5071741;28;20607;-76
2023/10/20 00:50:39;;;;;;;8.27;7.47;;;17.50;99.90;;;;;;5072449;28;20592;-76
2023/10/20 00:53:07;;;;;;;7.10;6.40;;;17.50;99.90;;;;;;5089947;28;20582;-76
2023/10/20 00:55:33;;;;;;;7.67;6.90;;;17.50;99.90;;;;;;5090343;28;21398;-76
2023/10/20 00:58:00;;;;;;;6.77;6.17;;;17.50;99.90;;;;;;5058384;28;20685;-76
2023/10/20 01:00:26;;;;;;;6.33;5.73;;;17.50;99.90;;;;;;5075712;28;20681;-76
2023/10/20 01:02:55;;;;;;;7.67;7.00;;;17.50;99.90;;;;;;5075360;28;20180;-76
2023/10/20 01:05:24;;;;;;;7.77;7.07;;;17.50;99.90;;;;;;5082027;28;20204;-76
2023/10/20 01:07:49;;;;;;;6.57;5.83;;;17.50;99.90;;;;;;5038335;28;20587;-76
2023/10/20 01:10:15;;;;;;;8.00;7.20;;;17.50;99.90;;;;;;5074263;28;20604;-76
2023/10/20 01:12:41;;;;;;;9.57;8.57;;;17.50;99.90;;;;;;5067216;28;20207;-76
2023/10/20 01:15:08;;;;;;;7.80;7.00;;;17.40;99.90;;;;;;5075226;28;21098;-77
2023/10/20 01:17:34;;;;;;;8.13;7.33;;;17.50;99.90;;;;;;5054011;28;20586;-76
2023/10/20 01:20:04;;;;;;;7.33;6.73;;;17.50;99.90;;;;;;5071999;28;20586;-76
2023/10/20 01:22:30;;;;;;;10.20;7.70;;;17.50;99.90;;;;;;5047885;28;20586;-76
2023/10/20 01:24:56;;;;;;;6.23;5.73;;;17.50;99.90;;;;;;5081597;28;20645;-76
2023/10/20 01:27:22;;;;;;;7.33;6.73;;;17.50;99.90;;;;;;5049800;28;20578;-76
2023/10/20 01:29:47;;;;;;;7.57;6.80;;;17.50;99.90;;;;;;5075105;28;20581;-77
2023/10/20 01:32:13;;;;;;;6.40;5.80;;;17.50;99.90;;;;;;5073123;28;20167;-77
2023/10/20 01:34:39;;;;;;;8.43;7.60;;;17.50;99.90;;;;;;5068853;28;20186;-77
2023/10/20 01:37:06;;;;;;;7.50;6.80;;;17.50;99.90;;;;;;5058432;28;20258;-77
2023/10/20 01:39:32;;;;;;;9.87;7.47;;;17.50;99.90;;;;;;5071075;28;20184;-77
2023/10/20 01:41:58;;;;;;;6.70;6.10;;;17.50;99.90;;;;;;5071142;28;20700;-77
2023/10/20 01:44:23;;;;;;;6.57;5.97;;;17.50;99.90;;;;;;5058040;28;20198;-77
2023/10/20 01:46:50;;;;;;;7.80;6.90;;;17.50;99.90;;;;;;5074955;28;20217;-77
2023/10/20 01:49:17;;;;;;;6.30;5.80;;;17.50;99.90;;;;;;5075000;28;21196;-77
2023/10/20 01:51:43;;;;;;;6.83;6.27;;;17.50;99.90;;;;;;5057908;28;20240;-77
2023/10/20 01:54:09;;;;;;;6.70;6.10;;;17.50;99.90;;;;;;5057953;28;21153;-77
2023/10/20 01:56:37;;;;;;;5.67;5.17;;;17.50;99.90;;;;;;5074651;28;20211;-76
2023/10/20 01:59:03;;;;;;;5.30;4.80;;;17.50;99.90;;;;;;5049582;28;20557;-76
2023/10/20 02:01:30;;;;;;;6.07;5.33;;;17.50;99.90;;;;;;5058177;28;20597;-76
2023/10/20 02:03:55;;;;;;;4.93;4.53;;;17.50;99.90;;;;;;5074464;28;21017;-76
2023/10/20 02:06:22;;;;;;;5.70;5.10;;;17.40;99.90;;;;;;5060598;28;20613;-75
2023/10/20 02:08:47;;;;;;;6.37;5.77;;;17.40;99.90;;;;;;5088654;28;20697;-75
2023/10/20 02:11:13;;;;;;;5.90;5.30;;;17.40;99.90;;;;;;5084116;28;20179;-76
2023/10/20 02:13:40;;;;;;;5.50;5.00;;;17.40;99.90;;;;;;5085557;28;20233;-77
2023/10/20 02:16:10;;;;;;;5.20;4.70;;;17.40;99.90;;;;;;5084732;28;20219;-76
2023/10/20 02:18:39;;;;;;;4.30;3.90;;;17.30;99.90;;;;;;5060433;28;20594;-76
2023/10/20 02:21:07;;;;;;;4.50;4.10;;;17.30;99.90;;;;;;5049299;28;20608;-76
2023/10/20 02:23:35;;;;;;;5.80;3.70;;;17.30;99.90;;;;;;5046125;28;20591;-76
2023/10/20 02:26:06;;;;;;;4.27;3.87;;;17.30;99.90;;;;;;5063280;28;20741;-76
2023/10/20 02:28:36;;;;;;;5.07;4.57;;;17.30;99.90;;;;;;5076422;28;20672;-76
2023/10/20 02:31:20;;;;;;;5.57;5.07;;;17.30;99.90;;;;;;5021160;28;20587;-76
2023/10/20 02:33:46;;;;;;;3.97;3.37;;;17.30;99.90;;;;;;5053964;28;21150;-76
2023/10/20 02:36:19;;;;;;;4.37;3.80;;;17.30;99.90;;;;;;5040469;28;20613;-76
2023/10/20 02:38:46;;;;;;;3.30;2.90;;;17.30;99.90;;;;;;5052410;28;20579;-75
2023/10/20 02:41:13;;;;;;;3.93;3.57;;;17.30;99.90;;;;;;5070387;28;20627;-74
2023/10/20 02:43:39;;;;;;;3.80;3.40;;;17.30;99.90;;;;;;5041691;28;20593;-75
2023/10/20 02:46:05;;;;;;;2.80;2.60;;;17.30;99.90;;;;;;5073497;28;20640;-75
2023/10/20 02:48:31;;;;;;;2.63;2.37;;;17.30;99.90;;;;;;5053377;28;21063;-75
2023/10/20 02:50:57;;;;;;;3.20;2.90;;;17.30;99.90;;;;;;5037035;28;20604;-76
2023/10/20 02:53:23;;;;;;;4.53;2.97;;;17.30;99.90;;;;;;5072236;28;20175;-76
2023/10/20 02:55:48;;;;;;;2.93;2.20;;;17.30;99.90;;;;;;5073403;28;21429;-75
2023/10/20 02:58:14;;;;;;;2.63;2.43;;;17.30;99.90;;;;;;5073276;28;20183;-76
2023/10/20 03:00:44;;;;;;;2.63;2.07;;;17.30;99.90;;;;;;5073325;28;20271;-76
2023/10/20 03:03:11;;;;;;;4.60;3.20;;;17.30;99.90;;;;;;5072862;28;20186;-76
2023/10/20 03:05:38;;;;;;;4.00;2.97;;;17.30;99.90;;;;;;5073153;28;20680;-76
2023/10/20 03:08:04;;;;;;;2.20;2.00;;;17.30;99.90;;;;;;5073144;28;20597;-76
2023/10/20 03:10:30;;;;;;;2.70;2.47;;;17.40;99.90;;;;;;5056218;28;20582;-76
2023/10/20 03:12:56;;;;;;;2.60;2.10;;;17.30;99.90;;;;;;5090877;28;20946;-76
2023/10/20 03:15:22;;;;;;;2.20;1.70;;;17.40;99.90;;;;;;5074548;28;20726;-76
2023/10/20 03:17:48;;;;;;;1.93;1.60;;;17.40;99.90;;;;;;5073073;28;20184;-76
2023/10/20 03:20:17;;;;;;;3.83;1.93;;;17.40;99.90;;;;;;5072274;28;20598;-76
2023/10/20 03:22:46;;;;;;;4.53;2.73;;;17.30;99.90;;;;;;5072823;28;20225;-76
2023/10/20 03:25:13;;;;;;;3.50;2.43;;;17.40;99.90;;;;;;5091021;28;20651;-76
2023/10/20 03:27:39;;;;;;;2.77;2.33;;;17.40;99.90;;;;;;5072993;28;20589;-76
2023/10/20 03:30:05;;;;;;;2.30;1.80;;;17.40;99.90;;;;;;5084547;28;20225;-76
2023/10/20 03:32:35;;;;;;;2.80;1.97;;;17.40;99.90;;;;;;5035865;28;20180;-76
2023/10/20 03:35:01;;;;;;;3.20;1.87;;;17.40;99.90;;;;;;5036038;28;20625;-76
2023/10/20 03:37:28;;;;;;;3.93;2.17;;;17.40;99.90;;;;;;5070423;28;21026;-76
2023/10/20 03:39:53;;;;;;;2.20;1.90;;;17.40;99.90;;;;;;5052655;28;20701;-76
2023/10/20 03:42:19;;;;;;;1.70;1.47;;;17.40;99.90;;;;;;5053717;28;20624;-76
2023/10/20 03:44:47;;;;;;;4.50;2.07;;;17.40;99.90;;;;;;5090657;28;20199;-76
2023/10/20 03:47:14;;;;;;;2.03;1.73;;;17.40;99.90;;;;;;5072646;28;20176;-76
2023/10/20 03:49:41;;;;;;;3.40;1.67;;;17.50;99.90;;;;;;5072736;28;20578;-76
2023/10/20 03:52:11;;;;;;;2.37;1.80;;;17.50;99.90;;;;;;5075953;28;20586;-76
2023/10/20 03:54:38;;;;;;;2.30;1.90;;;17.50;99.90;;;;;;5056421;28;21319;-76
2023/10/20 03:57:04;;;;;;;2.40;1.90;;;17.50;99.90;;;;;;5057206;28;21195;-76
2023/10/20 03:59:31;;;;;;;2.50;1.73;;;17.50;99.90;;;;;;5072146;28;20662;-76
2023/10/20 04:01:57;;;;;;;2.90;1.80;;;17.50;99.90;;;;;;5075378;28;20589;-76
2023/10/20 04:04:22;;;;;;;2.47;2.17;;;17.40;99.90;;;;;;5052228;28;21085;-76
2023/10/20 04:06:49;;;;;;;2.20;2.00;;;17.50;99.90;;;;;;5084131;28;20537;-76
2023/10/20 04:09:18;;;;;;;3.70;2.10;;;17.50;99.90;;;;;;5055550;28;20254;-76
2023/10/20 04:11:44;;;;;;;4.40;2.67;;;17.50;99.90;;;;;;5072050;28;20582;-76
2023/10/20 04:14:11;;;;;;;3.30;2.27;;;17.50;99.90;;;;;;5090330;28;20581;-76
2023/10/20 04:16:41;;;;;;;2.53;1.90;;;17.40;99.90;;;;;;5072076;28;20641;-76
2023/10/20 04:19:12;;;;;;;4.07;2.23;;;17.40;99.90;;;;;;5072350;28;20918;-76
2023/10/20 04:21:43;;;;;;;2.87;2.57;;;17.50;99.90;;;;;;5055432;28;20597;-76
2023/10/20 04:24:10;;;;;;;2.77;2.47;;;17.50;99.90;;;;;;5090331;28;20686;-76
2023/10/20 04:26:43;;;;;;;3.07;2.77;;;17.40;99.90;;;;;;5072370;28;20653;-76
2023/10/20 04:50:56;;;;;;;2.80;2.50;;;17.30;99.90;;;;;;5065013;28;20616;-76
2023/10/20 04:58:46;;;;;;;3.63;2.93;;;17.30;99.90;;;;;;5062159;28;20291;-76
2023/10/20 05:01:40;;;;;;;4.23;2.13;;;17.30;99.90;;;;;;5093775;28;20592;-76
2023/10/20 05:04:15;;;;;;;3.30;2.83;;;17.30;99.90;;;;;;5075717;28;21024;-76
2023/10/20 05:06:44;;;;;;;3.03;2.20;;;17.30;99.90;;;;;;5076259;28;20624;-76
2023/10/20 05:09:14;;;;;;;3.40;2.00;;;17.20;99.90;;;;;;5075509;28;20582;-76
2023/10/20 05:11:43;;;;;;;2.47;2.07;;;17.20;99.90;;;;;;5093399;28;20592;-76
2023/10/20 05:14:09;;;;;;;2.60;2.40;;;17.20;99.90;;;;;;5093611;28;20574;-76
2023/10/20 05:16:34;;;;;;;4.17;2.10;;;17.20;99.90;;;;;;5075066;28;20636;-76
2023/10/20 05:19:04;;;;;;;2.40;1.90;;;17.10;99.90;;;;;;5093586;28;20167;-76
2023/10/20 05:21:33;;;;;;;2.57;1.90;;;17.10;99.90;;;;;;5075228;28;20190;-76
2023/10/20 05:24:03;;;;;;;2.50;1.80;;;17.10;99.90;;;;;;5092986;28;20936;-76
2023/10/20 05:26:30;;;;;;;2.87;1.73;;;17.00;99.90;;;;;;5093419;28;20628;-77
2023/10/20 05:28:56;;;;;;;1.97;1.50;;;17.00;99.90;;;;;;5075025;28;20605;-76
2023/10/20 05:31:25;;;;;;;2.10;1.60;;;17.10;99.90;;;;;;5074853;28;20609;-77
2023/10/20 05:33:52;;;;;;;2.27;1.90;;;17.00;99.90;;;;;;5074679;28;20179;-76
2023/10/20 05:36:18;;;;;;;2.40;1.87;;;17.00;99.90;;;;;;5092797;28;20640;-76
2023/10/20 05:38:44;;;;;;;2.17;1.87;;;17.00;99.90;;;;;;5057905;28;20731;-76
2023/10/20 05:41:11;;;;;;;3.23;1.90;;;17.00;99.90;;;;;;5074816;28;20585;-76
2023/10/20 05:43:38;;;;;;;2.40;1.73;;;17.00;99.90;;;;;;5074008;28;20582;-76
2023/10/20 05:46:04;;;;;;;2.20;1.63;;;17.00;99.90;;;;;;5100265;22;20661;-76
2023/10/20 05:48:30;;;;;;;3.10;1.43;;;17.00;99.90;;;;;;5054734;28;20594;-76
2023/10/20 05:50:57;;;;;;;2.30;1.80;;;17.00;99.90;;;;;;5055169;28;20591;-76
2023/10/20 05:53:24;;;;;;;2.43;1.90;;;17.00;99.90;;;;;;5054186;28;20634;-77
2023/10/20 05:55:50;;;;;;;1.90;1.50;;;17.00;99.90;;;;;;5059471;28;20747;-76
2023/10/20 05:58:16;;;;;;;2.13;1.30;;;17.00;99.90;;;;;;5093086;28;20727;-76
2023/10/20 06:00:42;;;;;;;2.40;1.60;;;17.00;99.90;;;;;;5093185;28;20601;-76
2023/10/20 06:03:09;;;;;;;3.80;1.90;;;17.00;99.90;;;;;;5070204;28;20218;-77
2023/10/20 06:05:35;;;;;;;2.00;1.40;;;17.00;99.90;;;;;;5091745;28;20748;-76
2023/10/20 06:08:01;;;;;;;2.33;1.50;;;17.00;99.90;;;;;;5072867;28;21198;-75
2023/10/20 06:10:27;;;;;;;3.30;1.73;;;17.00;99.90;;;;;;5056852;28;20586;-75
2023/10/20 06:12:54;;;;;;;2.43;1.70;;;17.00;99.90;;;;;;5074587;28;20581;-76
2023/10/20 06:15:20;;;;;;;2.87;1.27;;;17.00;99.90;;;;;;5074410;28;20207;-75
2023/10/20 06:17:47;;;;;;;1.90;1.47;;;16.90;99.90;;;;;;5074490;28;20593;-76
2023/10/20 06:20:14;;;;;;;2.10;1.50;;;16.90;99.90;;;;;;5092188;28;20919;-75
2023/10/20 06:22:41;;;;;;;3.87;1.63;;;16.80;99.90;;;;;;5057165;28;20589;-76
2023/10/20 06:25:12;;;;;;;2.47;2.23;;;16.80;99.90;;;;;;5067489;28;20642;-76
2023/10/20 06:27:46;;;;;;;3.50;2.00;;;16.80;99.90;;;;;;5081193;28;20644;-75
2023/10/20 06:30:21;;;;;;;4.77;2.33;;;16.80;99.90;;;;;;5079637;28;20584;-74
2023/10/20 06:32:56;;;;;;;2.70;1.97;;;16.80;99.90;;;;;;5065362;28;20608;-74
2023/10/20 06:35:32;;;;;;;2.40;2.00;;;16.80;99.90;;;;;;5091879;28;20670;-73
2023/10/20 06:38:11;;;;;;;2.53;2.00;;;16.80;99.90;;;;;;5072638;28;20582;-75
2023/10/20 06:40:40;;;;;;;3.67;2.13;;;16.80;99.90;;;;;;5074298;28;20590;-76
2023/10/20 06:43:06;;;;;;;3.90;2.80;;;16.80;99.90;;;;;;5075232;28;20580;-76
2023/10/20 06:45:31;;;;;;;3.70;2.20;;;16.80;99.90;;;;;;5064889;28;21015;-75
2023/10/20 06:47:57;;;;;;;3.57;2.90;;;16.80;99.90;;;;;;5073535;28;20580;-74
2023/10/20 06:50:24;;;;;;;5.33;4.00;;;16.80;99.90;;;;;;5073388;28;20178;-75
2023/10/20 06:52:50;;;;;;;4.03;2.50;;;16.80;99.90;;;;;;5091396;28;20179;-74
2023/10/20 06:55:15;;;;;;;4.10;3.67;;;16.80;99.90;;;;;;5091464;28;20663;-76
2023/10/20 06:57:41;;;;;;;4.07;3.67;;;16.70;99.90;;;;;;5073443;28;20262;-75
2023/10/20 07:00:16;;;;;;;6.20;4.00;;;16.70;99.90;;;;;;5073528;28;20207;-75
2023/10/20 07:02:42;;;;;;;3.73;3.30;;;16.70;99.90;;;;;;5091424;28;20220;-75
2023/10/20 07:05:07;;;;;;;7.10;4.30;;;16.70;99.90;;;;;;5084485;28;20642;-75
2023/10/20 07:07:33;;;;;;;4.40;4.00;;;16.60;99.90;;;;;;5071347;28;20764;-76
2023/10/20 07:10:00;;;;;;;3.20;2.90;;;16.70;99.90;;;;;;5066446;28;20181;-76
2023/10/20 07:12:27;;;;;;;6.10;4.53;;;16.70;99.90;;;;;;5068261;28;20184;-76
2023/10/20 07:14:53;;;;;;;4.20;3.80;;;16.70;99.90;;;;;;5053730;28;20602;-76
2023/10/20 07:17:18;;;;;;;4.40;3.33;;;16.60;99.90;;;;;;5053182;28;20763;-76
2023/10/20 07:19:44;;;;;;;6.03;4.33;;;16.60;99.90;;;;;;5064501;28;20176;-76
2023/10/20 07:22:09;;;;;;;9.23;5.73;;;16.60;99.90;;;;;;5072811;28;20214;-76
2023/10/20 07:24:35;;;;;;;6.10;5.13;;;16.60;99.90;;;;;;5072771;28;20199;-77
2023/10/20 07:27:05;;;;;;;5.03;4.20;;;16.60;99.90;;;;;;5091028;28;20740;-77
2023/10/20 07:29:31;;;;;;;6.80;4.90;;;16.60;99.90;;;;;;5073202;28;20184;-76
2023/10/20 07:31:58;;;;;;;5.40;4.90;;;16.50;99.90;;;;;;5072922;28;20585;-76
2023/10/20 07:34:25;;;;;;;5.80;4.50;;;16.50;99.90;;;;;;5073155;28;20590;-76
2023/10/20 07:36:51;;;;;;;6.27;4.13;;;16.50;99.90;;;;;;5091041;28;20613;-76
2023/10/20 07:39:16;;;;;;;5.83;5.00;;;16.60;99.90;;;;;;5091116;28;20582;-76
2023/10/20 07:41:43;;;;;;;5.20;4.60;;;16.50;99.90;;;;;;5072594;28;20940;-76
2023/10/20 07:44:11;;;;;;;7.33;6.30;;;16.50;99.90;;;;;;5073509;28;20183;-76
2023/10/20 07:46:37;;;;;;;5.33;4.93;;;16.50;99.90;;;;;;5073238;28;20685;-76
2023/10/20 07:49:04;;;;;;;6.30;5.73;;;16.60;99.90;;;;;;5056116;28;20599;-76
2023/10/20 07:51:30;;;;;;;5.90;5.40;;;16.60;99.90;;;;;;5074737;28;20658;-76
2023/10/20 07:53:55;;;;;;;6.43;5.80;;;16.60;99.90;;;;;;5039127;28;20584;-77
2023/10/20 07:56:21;;;;;;;5.50;4.87;;;16.60;99.90;;;;;;5073048;28;20613;-77
2023/10/20 07:58:47;;;;;;;6.20;5.60;;;16.60;99.90;;;;;;5072676;28;20171;-76
2023/10/20 08:01:14;;;;;;;7.87;5.43;;;16.70;99.90;;;;;;5073069;28;20659;-77
2023/10/20 08:03:42;;;;;;;7.77;6.30;;;16.70;99.90;;;;;;5072566;28;20582;-77
2023/10/20 08:06:07;;;;;;;6.30;5.70;;;16.70;99.90;;;;;;5074057;28;20993;-77
2023/10/20 08:08:33;;;;;;;6.90;6.27;;;16.80;99.90;;;;;;5073168;28;20575;-77
2023/10/20 08:10:59;;;;;;;5.10;4.63;;;16.80;99.90;;;;;;5095050;28;20237;-77
2023/10/20 08:13:25;;;;;;;6.93;6.23;;;16.80;99.90;;;;;;5094727;28;20175;-76
2023/10/20 08:15:50;;;;;;;6.00;5.03;;;16.90;99.90;;;;;;5068239;28;20615;-76
2023/10/20 08:18:16;;;;;;;5.57;5.10;;;16.90;99.90;;;;;;5052250;28;20172;-76
2023/10/20 08:20:42;;;;;;;5.47;4.97;;;16.90;99.90;;;;;;5076867;28;20172;-76
2023/10/20 08:23:08;;;;;;;6.20;5.60;;;16.90;99.90;;;;;;5056066;28;20633;-76
2023/10/20 08:25:37;;;;;;;6.93;6.27;;;16.90;99.90;;;;;;5075478;28;20223;-76
2023/10/20 08:28:04;;;;;;;7.13;6.53;;;16.90;99.90;;;;;;5084152;28;20589;-76
2023/10/20 08:30:30;;;;;;;8.97;7.23;;;16.90;99.90;;;;;;5060520;28;20678;-76
2023/10/20 08:32:56;;;;;;;5.97;5.37;;;16.80;99.90;;;;;;5039475;28;20716;-76
2023/10/20 08:35:22;;;;;;;7.00;5.57;;;16.80;99.90;;;;;;5090111;28;20187;-77
2023/10/20 08:37:48;;;;;;;7.00;6.30;;;16.80;99.90;;;;;;5094290;28;20629;-76
2023/10/20 08:40:14;;;;;;;6.47;5.87;;;16.80;99.90;;;;;;5094377;28;20619;-75
2023/10/20 08:42:40;;;;;;;7.70;6.30;;;16.80;99.90;;;;;;5059966;28;20186;-76
2023/10/20 08:45:12;;;;;;;6.10;4.93;;;16.80;99.90;;;;;;5055825;28;20283;-76
2023/10/20 08:47:42;;;;;;;7.63;6.90;;;16.80;99.90;;;;;;5092451;28;20582;-76
2023/10/20 08:50:09;;;;;;;6.60;5.83;;;16.80;99.90;;;;;;5093766;28;20582;-76
2023/10/20 08:52:36;;;;;;;7.30;6.60;;;16.80;99.90;;;;;;5093774;28;20610;-77
2023/10/20 08:55:01;;;;;;;5.80;5.17;;;16.80;99.90;;;;;;5069093;28;20625;-76
2023/10/20 08:57:27;;;;;;;6.17;5.57;;;16.70;99.90;;;;;;5094953;28;21033;-75
2023/10/20 08:59:54;;;;;;;8.33;5.80;;;16.70;99.90;;;;;;5094027;28;20183;-76
2023/10/20 09:02:20;;;;;;;6.43;5.70;;;16.70;99.90;;;;;;5075569;28;20596;-75
2023/10/20 09:04:52;;;;;;;5.90;5.30;;;16.60;99.90;;;;;;5088801;28;20630;-75
2023/10/20 09:07:21;;;;;;;5.73;5.23;;;16.70;99.90;;;;;;5075801;28;20637;-76
2023/10/20 09:09:46;;;;;;;7.13;6.43;;;16.80;99.90;;;;;;5064993;28;20575;-75
2023/10/20 09:12:13;;;;;;;6.37;5.67;;;16.80;99.90;;;;;;5055249;28;20575;-76
2023/10/20 09:14:39;;;;;;;6.30;5.70;;;16.80;99.90;;;;;;5065468;28;20316;-75
2023/10/20 09:17:06;;;;;;;6.70;5.80;;;16.80;99.90;;;;;;5092953;28;20673;-76
2023/10/20 09:19:32;;;;;;;7.20;4.90;;;16.90;99.90;;;;;;5093736;28;20728;-77
2023/10/20 09:21:58;;;;;;;9.67;5.83;;;16.90;99.90;;;;;;5081205;28;20616;-77
2023/10/20 09:24:31;;;;;;;6.93;5.47;;;16.90;99.90;;;;;;5063716;28;20199;-77
2023/10/20 09:26:58;;;;;;;6.40;5.33;;;16.90;99.90;;;;;;5085820;28;20620;-77
2023/10/20 09:29:24;;;;;;;6.60;5.00;;;16.90;99.90;;;;;;5093758;28;20665;-78
2023/10/20 09:31:50;;;;;;;6.53;5.20;;;17.00;99.90;;;;;;5059453;28;20578;-77
2023/10/20 09:34:16;;;;;;;8.67;5.93;;;16.90;99.90;;;;;;5053493;28;20579;-77
2023/10/20 09:36:46;;;;;;;5.40;4.40;;;16.90;99.90;;;;;;5065785;28;20566;-77
2023/10/20 09:39:29;;;;;;;5.93;5.30;;;16.90;99.90;;;;;;5055680;28;20176;-76
2023/10/20 09:41:59;;;;;;;5.43;4.77;;;16.90;99.90;;;;;;5049661;28;20590;-77
2023/10/20 09:44:36;;;;;;;6.00;5.20;;;16.90;99.90;;;;;;5089157;28;20657;-77
2023/10/20 09:47:26;;;;;;;6.73;6.00;;;16.90;99.90;;;;;;5078911;28;21108;-77
2023/10/20 09:49:54;;;;;;;5.10;4.60;;;16.90;99.90;;;;;;5075089;28;20570;-77
2023/10/20 09:52:20;;;;;;;6.10;5.50;;;16.90;99.90;;;;;;5074551;28;20998;-76
2023/10/20 09:54:50;;;;;;;5.47;4.93;;;16.90;99.90;;;;;;5074904;28;20682;-77
2023/10/20 09:57:19;;;;;;;5.03;4.50;;;16.90;99.90;;;;;;5075190;28;20180;-77
2023/10/20 09:59:51;;;;;;;5.13;4.60;;;16.90;99.90;;;;;;5093957;28;20940;-76
2023/10/20 10:02:26;;;;;;;6.57;5.63;;;16.90;99.90;;;;;;5075175;28;20612;-77
2023/10/20 10:04:52;;;;;;;6.03;5.33;;;16.90;99.90;;;;;;5085378;28;21004;-80
2023/10/20 10:07:35;;;;;;;5.90;4.43;;;17.00;99.90;;;;;;5081561;28;20607;-80
2023/10/20 10:10:02;;;;;;;8.00;5.30;;;17.00;99.90;;;;;;5059093;28;20172;-79
2023/10/20 10:12:28;;;;;;;6.03;5.50;;;17.00;99.90;;;;;;5088577;28;20634;-79
2023/10/20 10:15:06;;;;;;;7.40;5.27;;;17.00;99.90;;;;;;5092699;28;20582;-79
2023/10/20 10:17:41;;;;;;;5.97;5.47;;;17.00;99.90;;;;;;5075220;28;20645;-79
2023/10/20 10:20:19;;;;;;;5.03;4.53;;;17.10;99.90;;;;;;5081744;28;20677;-79
2023/10/20 10:22:45;;;;;;;6.57;5.30;;;17.10;99.90;;;;;;5072653;28;20578;-79
2023/10/20 10:25:10;;;;;;;6.73;6.13;;;17.10;99.90;;;;;;5060439;28;20654;-79
2023/10/20 10:27:36;;;;;;;7.60;5.57;;;17.10;99.90;;;;;;5089757;28;20179;-79
2023/10/20 10:30:09;;;;;;;5.53;4.97;;;17.10;99.90;;;;;;5057800;28;20171;-80
2023/10/20 10:32:44;;;;;;;5.83;5.23;;;17.10;99.90;;;;;;5083912;28;20183;-79
2023/10/20 10:35:16;;;;;;;8.23;5.63;;;17.10;99.90;;;;;;5044239;28;20622;-80
2023/10/20 10:37:41;;;;;;;6.10;5.40;;;17.10;99.90;;;;;;5070953;28;20598;-79
2023/10/20 10:40:09;;;;;;;5.77;5.23;;;17.20;99.90;;;;;;5076817;28;21157;-79
2023/10/20 10:42:43;;;;;;;7.00;6.30;;;17.30;99.90;;;;;;5092120;28;21197;-79
2023/10/20 10:45:35;;;;;;;4.90;4.50;;;17.30;99.90;;;;;;5060967;28;20737;-79
2023/10/20 10:48:11;;;;;;;5.70;5.10;;;17.40;99.90;;;;;;5041937;28;20586;-80
2023/10/20 10:50:39;;;;;;;5.47;4.90;;;17.40;99.90;;;;;;5075444;28;20680;-79
2023/10/20 10:53:05;;;;;;;6.30;5.70;;;17.40;99.90;;;;;;5079179;28;20586;-80
2023/10/20 10:55:31;;;;;;;6.20;4.80;;;17.40;99.90;;;;;;5041521;28;20622;-80
2023/10/20 10:58:00;;;;;;;5.70;5.17;;;17.30;99.90;;;;;;5092200;28;20634;-80
2023/10/20 11:00:27;;;;;;;8.10;5.70;;;17.30;99.90;;;;;;5050347;28;21138;-79
2023/10/20 11:02:55;;;;;;;5.40;4.90;;;17.30;99.90;;;;;;5085623;28;20597;-74
2023/10/20 11:05:21;;;;;;;5.67;5.17;;;17.30;99.90;;;;;;5086421;28;20633;-74
2023/10/20 11:08:04;;;;;;;6.53;5.93;;;17.20;99.90;;;;;;5083199;28;20581;-74
2023/10/20 11:10:33;;;;;;;5.77;5.27;;;17.20;99.90;;;;;;5065783;28;20582;-74
2023/10/20 11:12:59;;;;;;;6.77;5.13;;;17.20;99.90;;;;;;5075547;28;20593;-74
2023/10/20 11:15:31;;;;;;;4.27;3.87;;;17.20;99.90;;;;;;5085530;28;20961;-74
2023/10/20 11:17:58;;;;;;;6.40;4.73;;;17.20;99.90;;;;;;5083675;28;21142;-74
2023/10/20 11:20:24;;;;;;;5.47;4.97;;;17.20;99.90;;;;;;5084054;28;20582;-74
2023/10/20 11:22:57;;;;;;;4.70;4.20;;;17.30;99.90;;;;;;5063988;28;20593;-75
2023/10/20 11:25:24;;;;;;;4.80;4.40;;;17.20;99.90;;;;;;5087198;28;21036;-74
2023/10/20 11:27:54;;;;;;;5.47;4.97;;;17.20;99.90;;;;;;5055689;28;20679;-75
2023/10/20 11:30:27;;;;;;;6.43;5.90;;;17.20;99.90;;;;;;5060405;28;20585;-75
2023/10/20 11:32:54;;;;;;;5.17;4.77;;;17.20;99.90;;;;;;5046721;28;20988;-74
2023/10/20 11:35:21;;;;;;;7.03;4.90;;;17.20;99.90;;;;;;5062203;28;20610;-75
2023/10/20 11:37:48;;;;;;;6.03;5.03;;;17.20;99.90;;;;;;5039258;28;20582;-75
2023/10/20 11:40:15;;;;;;;5.73;5.10;;;17.30;99.90;;;;;;5065958;28;20586;-75
2023/10/20 11:42:42;;;;;;;4.80;4.30;;;17.20;99.90;;;;;;5067426;28;20601;-75
2023/10/20 11:45:08;;;;;;;5.73;4.60;;;17.30;99.90;;;;;;5069520;28;20665;-75
2023/10/20 11:47:34;;;;;;;9.17;5.60;;;17.30;99.90;;;;;;5072920;28;20590;-75
2023/10/20 11:50:00;;;;;;;5.13;4.57;;;17.30;99.90;;;;;;5062603;28;20583;-75
2023/10/20 11:52:26;;;;;;;5.57;4.77;;;17.40;99.90;;;;;;5072860;28;20191;-74
2023/10/20 11:54:52;;;;;;;6.67;5.00;;;17.40;99.90;;;;;;5078020;28;21143;-77
2023/10/20 11:57:18;;;;;;;5.33;4.50;;;17.40;99.90;;;;;;5103786;28;20180;-77
2023/10/20 11:59:44;;;;;;;7.10;5.00;;;17.40;99.90;;;;;;5099262;28;20594;-78
2023/10/20 12:02:10;;;;;;;4.87;4.47;;;17.40;99.90;;;;;;5066561;28;20190;-79
2023/10/20 12:04:36;;;;;;;4.60;4.20;;;17.40;99.90;;;;;;5066308;28;20628;-77
2023/10/20 12:07:02;;;;;;;4.23;3.83;;;17.40;99.90;;;;;;5062303;28;20599;-77
2023/10/20 12:09:28;;;;;;;6.50;4.90;;;17.40;99.90;;;;;;5089810;28;20183;-78
2023/10/20 12:11:53;;;;;;;6.03;4.43;;;17.40;99.90;;;;;;5088316;28;20685;-76
2023/10/20 12:14:19;;;;;;;5.17;4.50;;;17.40;99.90;;;;;;5109907;28;20637;-80
2023/10/20 12:16:45;;;;;;;4.60;4.20;;;17.40;99.90;;;;;;5092111;28;20203;-78
2023/10/20 12:19:11;;;;;;;5.03;4.53;;;17.40;99.90;;;;;;5101105;28;20188;-78
2023/10/20 12:21:37;;;;;;;4.70;4.20;;;17.40;99.90;;;;;;5113307;28;20939;-77
2023/10/20 12:24:03;;;;;;;6.90;4.70;;;17.40;99.90;;;;;;5101187;28;20211;-77
2023/10/20 12:26:29;;;;;;;7.80;4.63;;;17.50;99.90;;;;;;5057707;28;20622;-76
2023/10/20 12:28:56;;;;;;;5.93;4.53;;;17.50;99.90;;;;;;5091228;28;20589;-76
2023/10/20 12:31:24;;;;;;;4.90;4.40;;;17.50;99.90;;;;;;5064270;28;20177;-76
2023/10/20 12:33:50;;;;;;;6.87;6.07;;;17.60;99.90;;;;;;5058028;28;20594;-77
2023/10/20 12:36:16;;;;;;;6.40;5.07;;;17.60;99.90;;;;;;5081472;28;20621;-76
2023/10/20 12:38:45;;;;;;;6.37;5.77;;;17.70;99.90;;;;;;5046900;28;20625;-75
2023/10/20 12:41:13;;;;;;;6.90;6.23;;;17.70;99.90;;;;;;5052881;28;20599;-75
2023/10/20 12:43:40;;;;;;;5.97;5.37;;;17.80;99.90;;;;;;5061631;28;20635;-76
2023/10/20 12:46:06;;;;;;;8.97;6.00;;;17.80;99.90;;;;;;5096302;28;20660;-76
2023/10/20 12:48:33;;;;;;;7.17;6.47;;;17.90;99.90;;;;;;5072709;28;20589;-76
2023/10/20 12:51:08;;;;;;;6.57;5.97;;;17.90;99.90;;;;;;5081402;28;20589;-76
2023/10/20 12:53:35;;;;;;;8.00;6.37;;;17.90;99.90;;;;;;5054548;28;20585;-77
2023/10/20 12:56:01;;;;;;;10.90;8.73;;;17.90;99.90;;;;;;5077318;28;20698;-77
2023/10/20 12:58:26;;;;;;;8.77;7.83;;;17.80;99.90;;;;;;5088138;28;21194;-77
2023/10/20 13:00:52;;;;;;;7.27;6.57;;;17.80;99.90;;;;;;5065781;28;20589;-77
2023/10/20 13:03:18;;;;;;;8.63;7.30;;;17.80;99.90;;;;;;5076317;28;20172;-77
2023/10/20 13:05:44;;;;;;;7.30;6.60;;;17.70;99.90;;;;;;5087775;28;20264;-76
2023/10/20 13:08:10;;;;;;;6.77;5.03;;;17.70;99.90;;;;;;5072053;28;20614;-76
2023/10/20 13:10:36;;;;;;;7.23;6.50;;;17.70;99.90;;;;;;5082217;28;20613;-77
2023/10/20 13:13:02;;;;;;;9.03;8.13;;;17.70;99.90;;;;;;5066435;28;20586;-77
2023/10/20 13:15:28;;;;;;;8.47;7.03;;;17.80;99.90;;;;;;5093698;28;20199;-76
2023/10/20 13:17:55;;;;;;;8.87;7.70;;;17.80;99.90;;;;;;5075461;28;20688;-76